Westview Chinook — VG3278 — position and weather

sailwx.info

Track history (hours):
 
Tides and Currents Weather Stations Pressure Air Temp Water Temp Dewpoint Dewpoint Depression Visibility Wind Speed Wind Dir Waves Ship Positions

Westview Chinook

Last reported at 2017-Nov-11 00:31 UTC. Time now 2017-Nov-21 19:32 UTC.
Position N 49°12' W 123°07'.
Warning: this ship's position is 10 days out of date.

Length 15 m.

Type: Tug. MMSI: 316005622.

Date/timePositionNaut miles runAvg speedWind from/ knotsBaromVisibWave heightAir tempDewpointWater temp
2017-Nov-11 00:31N 49°12' W 123°07'1 1.9
2017-Nov-11 00:00N 49°12' W 123°08'0 0.0
2017-Nov-10 23:30N 49°12' W 123°08'1 1.5
2017-Nov-10 22:50N 49°13' W 123°09'0 0.1
2017-Nov-10 22:30N 49°13' W 123°09'2 4.4
2017-Nov-10 22:00N 49°12' W 123°06'0 0.0
2017-Nov-10 21:30N 49°12' W 123°06'1 1.8
2017-Nov-10 21:00N 49°12' W 123°05'1 1.1
2017-Nov-10 20:30N 49°12' W 123°04'0 0.4
2017-Nov-10 20:00N 49°12' W 123°04'2 3.5
2017-Nov-10 19:30N 49°12' W 123°07'2 3.1
2017-Nov-10 19:00N 49°12' W 123°09'1 2.1
2017-Nov-10 18:30N 49°13' W 123°10'2 3.6
2017-Nov-10 18:00N 49°13' W 123°13'2 3.7
2017-Nov-10 17:29N 49°15' W 123°15'2 3.2
2017-Nov-10 17:00N 49°15' W 123°17'0 0.2
2017-Nov-10 16:30N 49°15' W 123°18'1 2.4
2017-Nov-10 16:01N 49°16' W 123°17'0 0.2
2017-Nov-10 15:30N 49°16' W 123°17'1 1.2
2017-Nov-10 15:00N 49°16' W 123°17'1 1.3
2017-Nov-10 14:30N 49°15' W 123°17'1 1.2
2017-Nov-10 14:00N 49°15' W 123°17'1 1.1
2017-Nov-10 13:30N 49°15' W 123°18'1 1.7
2017-Nov-10 12:59N 49°16' W 123°18'1 2.1
2017-Nov-10 12:30N 49°16' W 123°20'1 2.3
2017-Nov-10 12:00N 49°17' W 123°21'1 2.0
2017-Nov-10 11:30N 49°18' W 123°22'1 2.0
2017-Nov-10 11:00N 49°19' W 123°23'1 1.9
2017-Nov-10 10:30N 49°19' W 123°24'1 1.5
2017-Nov-10 10:00N 49°19' W 123°25'3 6.1
2017-Nov-10 09:30N 49°16' W 123°24'4 8.0
2017-Nov-10 08:59N 49°12' W 123°26'3 7.0
2017-Nov-10 08:30N 49°08' W 123°26'4 8.0
2017-Nov-10 08:00N 49°07' W 123°21'4 9.0
2017-Nov-10 07:30N 49°08' W 123°14'510.3
2017-Nov-10 07:00N 49°07' W 123°07'3 6.1
2017-Nov-10 06:30N 49°08' W 123°03'2 4.0
2017-Nov-10 06:00N 49°09' W 123°00'5 9.1
2017-Nov-10 05:30N 49°12' W 122°54'2 3.4
2017-Nov-10 05:00N 49°13' W 122°53'3 5.7
2017-Nov-10 04:29N 49°12' W 122°57'3 6.4
2017-Nov-10 04:00N 49°12' W 123°02'4 7.8
2017-Nov-10 03:30N 49°12' W 123°08'1 2.4
2017-Nov-10 03:00N 49°12' W 123°09'2 3.4
2017-Nov-10 02:30N 49°13' W 123°12'3 6.1
2017-Nov-10 02:00N 49°15' W 123°16'3 5.6
2017-Nov-10 01:30N 49°16' W 123°19'3 6.2
2017-Nov-10 01:00N 49°18' W 123°23'4 6.2
2017-Nov-10 00:20N 49°22' W 123°26'2 7.0
2017-Nov-10 00:00N 49°24' W 123°25'3 6.7
2017-Nov-09 23:30N 49°27' W 123°28'3 6.8
2017-Nov-09 23:00N 49°31' W 123°28'1 1.6
2017-Nov-09 22:30N 49°31' W 123°29'0 0.5
2017-Nov-09 22:00N 49°31' W 123°29'2 4.8
2017-Nov-09 21:30N 49°29' W 123°28'3 5.3
2017-Nov-09 21:01N 49°26' W 123°27'2 4.8
2017-Nov-09 20:30N 49°24' W 123°25'3 5.0
2017-Nov-09 20:00N 49°22' W 123°26'2 4.4
2017-Nov-09 19:30N 49°20' W 123°25'2 4.6
2017-Nov-09 19:00N 49°18' W 123°22'2 5.0
2017-Nov-09 18:30N 49°17' W 123°19'2 4.7
2017-Nov-09 18:00N 49°15' W 123°16'1 2.6
2017-Nov-09 17:30N 49°14' W 123°15'2 4.1
2017-Nov-09 17:00N 49°13' W 123°12'2 3.8
2017-Nov-09 16:30N 49°13' W 123°09'2 4.1
2017-Nov-09 16:00N 49°12' W 123°06'0 0.5
2017-Nov-09 15:29N 49°12' W 123°07'1 2.2
2017-Nov-09 14:59N 49°12' W 123°08'510.5
2017-Nov-09 14:30N 49°15' W 123°15'1 1.2
2017-Nov-09 14:00N 49°15' W 123°16'1 2.7
2017-Nov-09 13:30N 49°14' W 123°18'4 7.1
2017-Nov-09 13:00N 49°11' W 123°19'4 7.2
2017-Nov-09 12:30N 49°07' W 123°19'2 4.2
2017-Nov-09 11:59N 49°07' W 123°16'4 7.5
2017-Nov-09 11:30N 49°07' W 123°10'5 9.3
2017-Nov-09 11:00N 49°08' W 123°03'5 9.5
2017-Nov-09 10:30N 49°10' W 122°56'4 8.4
2017-Nov-09 10:00N 49°13' W 122°53'4 8.5
2017-Nov-09 09:30N 49°13' W 122°46'4 8.2
2017-Nov-09 08:59N 49°12' W 122°40'4 6.9
2017-Nov-09 08:28N 49°11' W 122°34'1 0.5
2017-Nov-09 06:35N 49°11' W 122°33'1 9.2
2017-Nov-09 06:30N 49°11' W 122°34'4 7.5
2017-Nov-09 05:55N 49°12' W 122°41'4 8.4
2017-Nov-09 05:30N 49°13' W 122°46'4 8.4
2017-Nov-09 05:00N 49°13' W 122°52'1 1.2
2017-Nov-09 04:30N 49°13' W 122°53'3 5.2
2017-Nov-09 04:00N 49°12' W 122°56'3 6.2
2017-Nov-09 03:29N 49°12' W 123°01'3 6.7
2017-Nov-09 03:00N 49°12' W 123°06'0 0.3
2017-Nov-09 02:30N 49°12' W 123°06'0 0.0
2017-Nov-09 02:00N 49°12' W 123°06'1 1.0
2017-Nov-09 01:30N 49°12' W 123°07'2 3.4
2017-Nov-09 01:00N 49°12' W 123°09'1 2.1
2017-Nov-09 00:30N 49°13' W 123°11'3 6.7
2017-Nov-09 00:00N 49°15' W 123°15'3 6.9
2017-Nov-08 23:30N 49°17' W 123°19'4 7.1
2017-Nov-08 23:00N 49°19' W 123°24'3 6.8
2017-Nov-08 22:30N 49°22' W 123°26'3 7.1
2017-Nov-08 22:00N 49°25' W 123°27'4 7.6
2017-Nov-08 21:30N 49°29' W 123°28'2 4.9
2017-Nov-08 21:01N 49°32' W 123°29'1 1.3
2017-Nov-08 20:29N 49°31' W 123°28'3 5.7
2017-Nov-08 20:01N 49°28' W 123°28'3 5.9
2017-Nov-08 19:30N 49°25' W 123°27'3 5.1
2017-Nov-08 19:00N 49°23' W 123°26'3 5.4
2017-Nov-08 18:31N 49°20' W 123°26'3 6.1
2017-Nov-08 18:00N 49°18' W 123°22'3 5.6
2017-Nov-08 17:30N 49°17' W 123°19'3 5.1
2017-Nov-08 16:58N 49°15' W 123°15'2 4.3
2017-Nov-08 16:30N 49°14' W 123°13'2 3.8
2017-Nov-08 16:00N 49°13' W 123°10'1 1.8
2017-Nov-08 15:30N 49°12' W 123°09'2 4.6
2017-Nov-08 14:58N 49°12' W 123°06'1 1.9
2017-Nov-08 14:28N 49°12' W 123°07'1 1.4
2017-Nov-08 13:59N 49°12' W 123°06'0 0.0
2017-Nov-08 13:30N 49°12' W 123°06'0 0.0
2017-Nov-08 13:00N 49°12' W 123°06'0 0.0
2017-Nov-08 12:30N 49°12' W 123°06'0 0.0
2017-Nov-08 11:59N 49°12' W 123°06'0 0.0
2017-Nov-08 11:30N 49°12' W 123°06'0 0.0
2017-Nov-08 11:00N 49°12' W 123°06'0 0.0
2017-Nov-08 10:30N 49°12' W 123°06'0 0.0
2017-Nov-08 10:00N 49°12' W 123°06'0 0.0
2017-Nov-08 09:29N 49°12' W 123°06'0 0.0
2017-Nov-08 09:00N 49°12' W 123°06'0 0.0
2017-Nov-08 08:30N 49°12' W 123°06'0 0.0
2017-Nov-08 08:00N 49°12' W 123°06'0 0.0
2017-Nov-08 07:30N 49°12' W 123°06'0 0.0
2017-Nov-08 07:00N 49°12' W 123°06'0 0.0
2017-Nov-08 06:30N 49°12' W 123°06'0 0.0
2017-Nov-08 06:00N 49°12' W 123°06'0 0.0
2017-Nov-08 05:30N 49°12' W 123°06'0 0.0
2017-Nov-08 05:00N 49°12' W 123°06'0 0.0
2017-Nov-08 04:29N 49°12' W 123°06'0 0.0
2017-Nov-08 03:59N 49°12' W 123°06'2 3.2
2017-Nov-08 03:30N 49°12' W 123°04'4 7.7
2017-Nov-08 03:00N 49°11' W 122°58'4 4.9
2017-Nov-08 02:14N 49°13' W 122°53'2 8.3
2017-Nov-08 02:00N 49°11' W 122°55'4 7.3
2017-Nov-08 01:30N 49°09' W 122°60'4 7.2
2017-Nov-08 00:59N 49°07' W 123°05'2 4.6
2017-Nov-08 00:30N 49°07' W 123°08'4 8.0
2017-Nov-07 23:59N 49°08' W 123°14'4 7.8
2017-Nov-07 23:28N 49°06' W 123°19'4 9.5
2017-Nov-07 23:00N 49°01' W 123°18'510.4
2017-Nov-07 22:30N 48°56' W 123°18'5 9.4
2017-Nov-07 22:00N 48°52' W 123°20'0 0.1
2017-Nov-07 21:28N 48°52' W 123°20'3 5.3
2017-Nov-07 20:59N 48°54' W 123°18'3 7.0
2017-Nov-07 20:29N 48°57' W 123°18'3 7.0
2017-Nov-07 19:59N 49°01' W 123°19'4 7.5
2017-Nov-07 19:27N 49°05' W 123°19'3 7.0
2017-Nov-07 18:57N 49°07' W 123°16'3 6.7
2017-Nov-07 18:30N 49°07' W 123°11'3 6.8
2017-Nov-07 18:00N 49°07' W 123°06'3 6.6
2017-Nov-07 17:30N 49°09' W 123°02'1 2.2
2017-Nov-07 16:59N 49°09' W 123°00'4 7.1
2017-Nov-07 16:30N 49°11' W 122°55'3 6.7
2017-Nov-07 15:59N 49°12' W 123°00'4 7.7
2017-Nov-07 15:30N 49°12' W 123°06'0 0.0
2017-Nov-07 15:00N 49°12' W 123°06'0 0.0
2017-Nov-07 14:30N 49°12' W 123°06'  
2017-Nov-03 14:01N 49°12' W 123°06'0 0.0
2017-Nov-03 13:59N 49°12' W 123°06'0 0.0
2017-Nov-03 13:30N 49°12' W 123°06'0 0.0
2017-Nov-03 12:59N 49°12' W 123°06'0 0.0
2017-Nov-03 12:30N 49°12' W 123°06'0 0.0
2017-Nov-03 12:00N 49°12' W 123°06'0 0.0
2017-Nov-03 11:30N 49°12' W 123°06'0 0.0
2017-Nov-03 11:00N 49°12' W 123°06'0 0.0
2017-Nov-03 10:30N 49°12' W 123°06'0 0.0
2017-Nov-03 09:59N 49°12' W 123°06'0 0.0
2017-Nov-03 09:30N 49°12' W 123°06'0 0.0
2017-Nov-03 09:00N 49°12' W 123°06'0 0.0
2017-Nov-03 08:28N 49°12' W 123°06'0 0.0
2017-Nov-03 07:59N 49°12' W 123°06'0 0.0
2017-Nov-03 07:30N 49°12' W 123°06'0 0.0
2017-Nov-03 07:00N 49°12' W 123°06'0 0.0
2017-Nov-03 06:30N 49°12' W 123°06'0 0.0
2017-Nov-03 05:59N 49°12' W 123°06'0 0.0
2017-Nov-03 05:28N 49°12' W 123°06'0 0.0
2017-Nov-03 04:59N 49°12' W 123°06'0 0.0
2017-Nov-03 04:29N 49°12' W 123°06'0 0.0
2017-Nov-03 04:00N 49°12' W 123°06'0 0.0
2017-Nov-03 03:30N 49°12' W 123°06'0 0.0
2017-Nov-03 03:00N 49°12' W 123°06'0 0.0
2017-Nov-03 02:30N 49°12' W 123°06'0 0.0
2017-Nov-03 01:59N 49°12' W 123°06'0 0.0
2017-Nov-03 01:29N 49°12' W 123°06'0 0.0
2017-Nov-03 01:00N 49°12' W 123°06'0 0.0
2017-Nov-03 00:30N 49°12' W 123°06'0 0.0
2017-Nov-03 00:00N 49°12' W 123°06'0 0.0
2017-Nov-02 23:28N 49°12' W 123°06'0 0.0
2017-Nov-02 23:01N 49°12' W 123°06'0 0.0
2017-Nov-02 22:28N 49°12' W 123°06'0 0.0
2017-Nov-02 22:00N 49°12' W 123°06'0 0.0
2017-Nov-02 21:29N 49°12' W 123°06'0 0.0
2017-Nov-02 21:00N 49°12' W 123°06'0 0.0
2017-Nov-02 20:30N 49°12' W 123°06'0 0.0
2017-Nov-02 20:00N 49°12' W 123°06'0 0.0
2017-Nov-02 19:30N 49°12' W 123°06'0 0.0
2017-Nov-02 19:01N 49°12' W 123°06'0 0.0
2017-Nov-02 18:30N 49°12' W 123°06'0 0.0
2017-Nov-02 18:00N 49°12' W 123°06'0 0.0
2017-Nov-02 17:31N 49°12' W 123°06'0 0.0
2017-Nov-02 17:00N 49°12' W 123°06'0 0.0
2017-Nov-02 16:30N 49°12' W 123°06'0 0.0
2017-Nov-02 16:01N 49°12' W 123°06'0 0.0
2017-Nov-02 15:30N 49°12' W 123°06'0 0.0
2017-Nov-02 15:00N 49°12' W 123°06'0 0.0
2017-Nov-02 14:30N 49°12' W 123°06'0 0.0
2017-Nov-02 14:00N 49°12' W 123°06'0 0.0
2017-Nov-02 13:30N 49°12' W 123°06'0 0.0
2017-Nov-02 13:00N 49°12' W 123°06'0 0.0
2017-Nov-02 12:30N 49°12' W 123°06'0 0.0
2017-Nov-02 12:00N 49°12' W 123°06'0 0.0
2017-Nov-02 11:30N 49°12' W 123°06'0 0.0
2017-Nov-02 11:00N 49°12' W 123°06'0 0.0
2017-Nov-02 10:30N 49°12' W 123°06'0 0.0
2017-Nov-02 10:01N 49°12' W 123°06'0 0.0
2017-Nov-02 09:30N 49°12' W 123°06'0 0.0
2017-Nov-02 09:00N 49°12' W 123°06'0 0.0
2017-Nov-02 08:30N 49°12' W 123°06'0 0.0
2017-Nov-02 08:01N 49°12' W 123°06'0 0.0
2017-Nov-02 07:30N 49°12' W 123°06'0 0.0
2017-Nov-02 07:01N 49°12' W 123°06'0 0.0
2017-Nov-02 06:31N 49°12' W 123°06'0 0.0
2017-Nov-02 06:00N 49°12' W 123°06'0 0.0
2017-Nov-02 05:30N 49°12' W 123°06'0 0.0
2017-Nov-02 05:00N 49°12' W 123°06'0 0.0
2017-Nov-02 04:31N 49°12' W 123°06'0 0.0
2017-Nov-02 04:00N 49°12' W 123°06'0 0.0
2017-Nov-02 03:30N 49°12' W 123°06'0 0.0
2017-Nov-02 02:59N 49°12' W 123°06'0 0.0
2017-Nov-02 02:28N 49°12' W 123°06'0 0.0
2017-Nov-02 02:00N 49°12' W 123°06'0 0.0
2017-Nov-02 01:30N 49°12' W 123°06'0 0.0
2017-Nov-02 01:00N 49°12' W 123°06'0 0.0
2017-Nov-02 00:31N 49°12' W 123°06'0 0.0
2017-Nov-02 00:00N 49°12' W 123°06'0 0.0
2017-Nov-01 23:31N 49°12' W 123°06'0 0.0
2017-Nov-01 23:00N 49°12' W 123°06'0 0.0
2017-Nov-01 22:30N 49°12' W 123°06'0 0.0
2017-Nov-01 22:00N 49°12' W 123°06'0 0.0
2017-Nov-01 21:30N 49°12' W 123°06'0 0.0
2017-Nov-01 21:00N 49°12' W 123°06'0 0.0
2017-Nov-01 20:30N 49°12' W 123°06'0 0.0
2017-Nov-01 20:00N 49°12' W 123°06'0 0.0
2017-Nov-01 19:30N 49°12' W 123°06'0 0.0
2017-Nov-01 19:01N 49°12' W 123°06'0 0.0
2017-Nov-01 18:30N 49°12' W 123°06'  
Track history (hours):
 
Tides and Currents Weather Stations Pressure Air Temp Water Temp Dewpoint Dewpoint Depression Visibility Wind Speed Wind Dir Waves Ship Positions

Westview Chinook

Last reported at 2017-Nov-11 00:31 UTC. Time now 2017-Nov-21 19:32 UTC.
Position N 49°12' W 123°07'.
Warning: this ship's position is 10 days out of date.

Length 15 m.

Type: Tug. MMSI: 316005622.

Date/timePositionNaut miles runAvg speedWind from/ knotsBaromVisibWave heightAir tempDewpointWater temp
2017-Nov-11 00:31N 49°12' W 123°07'1 1.9
2017-Nov-11 00:00N 49°12' W 123°08'0 0.0
2017-Nov-10 23:30N 49°12' W 123°08'1 1.5
2017-Nov-10 22:50N 49°13' W 123°09'0 0.1
2017-Nov-10 22:30N 49°13' W 123°09'2 4.4
2017-Nov-10 22:00N 49°12' W 123°06'0 0.0
2017-Nov-10 21:30N 49°12' W 123°06'1 1.8
2017-Nov-10 21:00N 49°12' W 123°05'1 1.1
2017-Nov-10 20:30N 49°12' W 123°04'0 0.4
2017-Nov-10 20:00N 49°12' W 123°04'2 3.5
2017-Nov-10 19:30N 49°12' W 123°07'2 3.1
2017-Nov-10 19:00N 49°12' W 123°09'1 2.1
2017-Nov-10 18:30N 49°13' W 123°10'2 3.6
2017-Nov-10 18:00N 49°13' W 123°13'2 3.7
2017-Nov-10 17:29N 49°15' W 123°15'2 3.2
2017-Nov-10 17:00N 49°15' W 123°17'0 0.2
2017-Nov-10 16:30N 49°15' W 123°18'1 2.4
2017-Nov-10 16:01N 49°16' W 123°17'0 0.2
2017-Nov-10 15:30N 49°16' W 123°17'1 1.2
2017-Nov-10 15:00N 49°16' W 123°17'1 1.3
2017-Nov-10 14:30N 49°15' W 123°17'1 1.2
2017-Nov-10 14:00N 49°15' W 123°17'1 1.1
2017-Nov-10 13:30N 49°15' W 123°18'1 1.7
2017-Nov-10 12:59N 49°16' W 123°18'1 2.1
2017-Nov-10 12:30N 49°16' W 123°20'1 2.3
2017-Nov-10 12:00N 49°17' W 123°21'1 2.0
2017-Nov-10 11:30N 49°18' W 123°22'1 2.0
2017-Nov-10 11:00N 49°19' W 123°23'1 1.9
2017-Nov-10 10:30N 49°19' W 123°24'1 1.5
2017-Nov-10 10:00N 49°19' W 123°25'3 6.1
2017-Nov-10 09:30N 49°16' W 123°24'4 8.0
2017-Nov-10 08:59N 49°12' W 123°26'3 7.0
2017-Nov-10 08:30N 49°08' W 123°26'4 8.0
2017-Nov-10 08:00N 49°07' W 123°21'4 9.0
2017-Nov-10 07:30N 49°08' W 123°14'510.3
2017-Nov-10 07:00N 49°07' W 123°07'3 6.1
2017-Nov-10 06:30N 49°08' W 123°03'2 4.0
2017-Nov-10 06:00N 49°09' W 123°00'5 9.1
2017-Nov-10 05:30N 49°12' W 122°54'2 3.4
2017-Nov-10 05:00N 49°13' W 122°53'3 5.7
2017-Nov-10 04:29N 49°12' W 122°57'3 6.4
2017-Nov-10 04:00N 49°12' W 123°02'4 7.8
2017-Nov-10 03:30N 49°12' W 123°08'1 2.4
2017-Nov-10 03:00N 49°12' W 123°09'2 3.4
2017-Nov-10 02:30N 49°13' W 123°12'3 6.1
2017-Nov-10 02:00N 49°15' W 123°16'3 5.6
2017-Nov-10 01:30N 49°16' W 123°19'3 6.2
2017-Nov-10 01:00N 49°18' W 123°23'4 6.2
2017-Nov-10 00:20N 49°22' W 123°26'2 7.0
2017-Nov-10 00:00N 49°24' W 123°25'3 6.7
2017-Nov-09 23:30N 49°27' W 123°28'3 6.8
2017-Nov-09 23:00N 49°31' W 123°28'1 1.6
2017-Nov-09 22:30N 49°31' W 123°29'0 0.5
2017-Nov-09 22:00N 49°31' W 123°29'2 4.8
2017-Nov-09 21:30N 49°29' W 123°28'3 5.3
2017-Nov-09 21:01N 49°26' W 123°27'2 4.8
2017-Nov-09 20:30N 49°24' W 123°25'3 5.0
2017-Nov-09 20:00N 49°22' W 123°26'2 4.4
2017-Nov-09 19:30N 49°20' W 123°25'2 4.6
2017-Nov-09 19:00N 49°18' W 123°22'2 5.0
2017-Nov-09 18:30N 49°17' W 123°19'2 4.7
2017-Nov-09 18:00N 49°15' W 123°16'1 2.6
2017-Nov-09 17:30N 49°14' W 123°15'2 4.1
2017-Nov-09 17:00N 49°13' W 123°12'2 3.8
2017-Nov-09 16:30N 49°13' W 123°09'2 4.1
2017-Nov-09 16:00N 49°12' W 123°06'0 0.5
2017-Nov-09 15:29N 49°12' W 123°07'1 2.2
2017-Nov-09 14:59N 49°12' W 123°08'510.5
2017-Nov-09 14:30N 49°15' W 123°15'1 1.2
2017-Nov-09 14:00N 49°15' W 123°16'1 2.7
2017-Nov-09 13:30N 49°14' W 123°18'4 7.1
2017-Nov-09 13:00N 49°11' W 123°19'4 7.2
2017-Nov-09 12:30N 49°07' W 123°19'2 4.2
2017-Nov-09 11:59N 49°07' W 123°16'4 7.5
2017-Nov-09 11:30N 49°07' W 123°10'5 9.3
2017-Nov-09 11:00N 49°08' W 123°03'5 9.5
2017-Nov-09 10:30N 49°10' W 122°56'4 8.4
2017-Nov-09 10:00N 49°13' W 122°53'4 8.5
2017-Nov-09 09:30N 49°13' W 122°46'4 8.2
2017-Nov-09 08:59N 49°12' W 122°40'4 6.9
2017-Nov-09 08:28N 49°11' W 122°34'1 0.5
2017-Nov-09 06:35N 49°11' W 122°33'1 9.2
2017-Nov-09 06:30N 49°11' W 122°34'4 7.5
2017-Nov-09 05:55N 49°12' W 122°41'4 8.4
2017-Nov-09 05:30N 49°13' W 122°46'4 8.4
2017-Nov-09 05:00N 49°13' W 122°52'1 1.2
2017-Nov-09 04:30N 49°13' W 122°53'3 5.2
2017-Nov-09 04:00N 49°12' W 122°56'3 6.2
2017-Nov-09 03:29N 49°12' W 123°01'3 6.7
2017-Nov-09 03:00N 49°12' W 123°06'0 0.3
2017-Nov-09 02:30N 49°12' W 123°06'0 0.0
2017-Nov-09 02:00N 49°12' W 123°06'1 1.0
2017-Nov-09 01:30N 49°12' W 123°07'2 3.4
2017-Nov-09 01:00N 49°12' W 123°09'1 2.1
2017-Nov-09 00:30N 49°13' W 123°11'3 6.7
2017-Nov-09 00:00N 49°15' W 123°15'3 6.9
2017-Nov-08 23:30N 49°17' W 123°19'4 7.1
2017-Nov-08 23:00N 49°19' W 123°24'3 6.8
2017-Nov-08 22:30N 49°22' W 123°26'3 7.1
2017-Nov-08 22:00N 49°25' W 123°27'4 7.6
2017-Nov-08 21:30N 49°29' W 123°28'2 4.9
2017-Nov-08 21:01N 49°32' W 123°29'1 1.3
2017-Nov-08 20:29N 49°31' W 123°28'3 5.7
2017-Nov-08 20:01N 49°28' W 123°28'3 5.9
2017-Nov-08 19:30N 49°25' W 123°27'3 5.1
2017-Nov-08 19:00N 49°23' W 123°26'3 5.4
2017-Nov-08 18:31N 49°20' W 123°26'3 6.1
2017-Nov-08 18:00N 49°18' W 123°22'3 5.6
2017-Nov-08 17:30N 49°17' W 123°19'3 5.1
2017-Nov-08 16:58N 49°15' W 123°15'2 4.3
2017-Nov-08 16:30N 49°14' W 123°13'2 3.8
2017-Nov-08 16:00N 49°13' W 123°10'1 1.8
2017-Nov-08 15:30N 49°12' W 123°09'2 4.6
2017-Nov-08 14:58N 49°12' W 123°06'1 1.9
2017-Nov-08 14:28N 49°12' W 123°07'1 1.4
2017-Nov-08 13:59N 49°12' W 123°06'0 0.0
2017-Nov-08 13:30N 49°12' W 123°06'0 0.0
2017-Nov-08 13:00N 49°12' W 123°06'0 0.0
2017-Nov-08 12:30N 49°12' W 123°06'0 0.0
2017-Nov-08 11:59N 49°12' W 123°06'0 0.0
2017-Nov-08 11:30N 49°12' W 123°06'0 0.0
2017-Nov-08 11:00N 49°12' W 123°06'0 0.0
2017-Nov-08 10:30N 49°12' W 123°06'0 0.0
2017-Nov-08 10:00N 49°12' W 123°06'0 0.0
2017-Nov-08 09:29N 49°12' W 123°06'0 0.0
2017-Nov-08 09:00N 49°12' W 123°06'0 0.0
2017-Nov-08 08:30N 49°12' W 123°06'0 0.0
2017-Nov-08 08:00N 49°12' W 123°06'0 0.0
2017-Nov-08 07:30N 49°12' W 123°06'0 0.0
2017-Nov-08 07:00N 49°12' W 123°06'0 0.0
2017-Nov-08 06:30N 49°12' W 123°06'0 0.0
2017-Nov-08 06:00N 49°12' W 123°06'0 0.0
2017-Nov-08 05:30N 49°12' W 123°06'0 0.0
2017-Nov-08 05:00N 49°12' W 123°06'0 0.0
2017-Nov-08 04:29N 49°12' W 123°06'0 0.0
2017-Nov-08 03:59N 49°12' W 123°06'2 3.2
2017-Nov-08 03:30N 49°12' W 123°04'4 7.7
2017-Nov-08 03:00N 49°11' W 122°58'4 4.9
2017-Nov-08 02:14N 49°13' W 122°53'2 8.3
2017-Nov-08 02:00N 49°11' W 122°55'4 7.3
2017-Nov-08 01:30N 49°09' W 122°60'4 7.2
2017-Nov-08 00:59N 49°07' W 123°05'2 4.6
2017-Nov-08 00:30N 49°07' W 123°08'4 8.0
2017-Nov-07 23:59N 49°08' W 123°14'4 7.8
2017-Nov-07 23:28N 49°06' W 123°19'4 9.5
2017-Nov-07 23:00N 49°01' W 123°18'510.4
2017-Nov-07 22:30N 48°56' W 123°18'5 9.4
2017-Nov-07 22:00N 48°52' W 123°20'0 0.1
2017-Nov-07 21:28N 48°52' W 123°20'3 5.3
2017-Nov-07 20:59N 48°54' W 123°18'3 7.0
2017-Nov-07 20:29N 48°57' W 123°18'3 7.0
2017-Nov-07 19:59N 49°01' W 123°19'4 7.5
2017-Nov-07 19:27N 49°05' W 123°19'3 7.0
2017-Nov-07 18:57N 49°07' W 123°16'3 6.7
2017-Nov-07 18:30N 49°07' W 123°11'3 6.8
2017-Nov-07 18:00N 49°07' W 123°06'3 6.6
2017-Nov-07 17:30N 49°09' W 123°02'1 2.2
2017-Nov-07 16:59N 49°09' W 123°00'4 7.1
2017-Nov-07 16:30N 49°11' W 122°55'3 6.7
2017-Nov-07 15:59N 49°12' W 123°00'4 7.7
2017-Nov-07 15:30N 49°12' W 123°06'0 0.0
2017-Nov-07 15:00N 49°12' W 123°06'0 0.0
2017-Nov-07 14:30N 49°12' W 123°06'  
2017-Nov-03 14:01N 49°12' W 123°06'0 0.0
2017-Nov-03 13:59N 49°12' W 123°06'0 0.0
2017-Nov-03 13:30N 49°12' W 123°06'0 0.0
2017-Nov-03 12:59N 49°12' W 123°06'0 0.0
2017-Nov-03 12:30N 49°12' W 123°06'0 0.0
2017-Nov-03 12:00N 49°12' W 123°06'0 0.0
2017-Nov-03 11:30N 49°12' W 123°06'0 0.0
2017-Nov-03 11:00N 49°12' W 123°06'0 0.0
2017-Nov-03 10:30N 49°12' W 123°06'0 0.0
2017-Nov-03 09:59N 49°12' W 123°06'0 0.0
2017-Nov-03 09:30N 49°12' W 123°06'0 0.0
2017-Nov-03 09:00N 49°12' W 123°06'0 0.0
2017-Nov-03 08:28N 49°12' W 123°06'0 0.0
2017-Nov-03 07:59N 49°12' W 123°06'0 0.0
2017-Nov-03 07:30N 49°12' W 123°06'0 0.0
2017-Nov-03 07:00N 49°12' W 123°06'0 0.0
2017-Nov-03 06:30N 49°12' W 123°06'0 0.0
2017-Nov-03 05:59N 49°12' W 123°06'0 0.0
2017-Nov-03 05:28N 49°12' W 123°06'0 0.0
2017-Nov-03 04:59N 49°12' W 123°06'0 0.0
2017-Nov-03 04:29N 49°12' W 123°06'0 0.0
2017-Nov-03 04:00N 49°12' W 123°06'0 0.0
2017-Nov-03 03:30N 49°12' W 123°06'0 0.0
2017-Nov-03 03:00N 49°12' W 123°06'0 0.0
2017-Nov-03 02:30N 49°12' W 123°06'0 0.0
2017-Nov-03 01:59N 49°12' W 123°06'0 0.0
2017-Nov-03 01:29N 49°12' W 123°06'0 0.0
2017-Nov-03 01:00N 49°12' W 123°06'0 0.0
2017-Nov-03 00:30N 49°12' W 123°06'0 0.0
2017-Nov-03 00:00N 49°12' W 123°06'0 0.0
2017-Nov-02 23:28N 49°12' W 123°06'0 0.0
2017-Nov-02 23:01N 49°12' W 123°06'0 0.0
2017-Nov-02 22:28N 49°12' W 123°06'0 0.0
2017-Nov-02 22:00N 49°12' W 123°06'0 0.0
2017-Nov-02 21:29N 49°12' W 123°06'0 0.0
2017-Nov-02 21:00N 49°12' W 123°06'0 0.0
2017-Nov-02 20:30N 49°12' W 123°06'0 0.0
2017-Nov-02 20:00N 49°12' W 123°06'0 0.0
2017-Nov-02 19:30N 49°12' W 123°06'0 0.0
2017-Nov-02 19:01N 49°12' W 123°06'0 0.0
2017-Nov-02 18:30N 49°12' W 123°06'0 0.0
2017-Nov-02 18:00N 49°12' W 123°06'0 0.0
2017-Nov-02 17:31N 49°12' W 123°06'0 0.0
2017-Nov-02 17:00N 49°12' W 123°06'0 0.0
2017-Nov-02 16:30N 49°12' W 123°06'0 0.0
2017-Nov-02 16:01N 49°12' W 123°06'0 0.0
2017-Nov-02 15:30N 49°12' W 123°06'0 0.0
2017-Nov-02 15:00N 49°12' W 123°06'0 0.0
2017-Nov-02 14:30N 49°12' W 123°06'0 0.0
2017-Nov-02 14:00N 49°12' W 123°06'0 0.0
2017-Nov-02 13:30N 49°12' W 123°06'0 0.0
2017-Nov-02 13:00N 49°12' W 123°06'0 0.0
2017-Nov-02 12:30N 49°12' W 123°06'0 0.0
2017-Nov-02 12:00N 49°12' W 123°06'0 0.0
2017-Nov-02 11:30N 49°12' W 123°06'0 0.0
2017-Nov-02 11:00N 49°12' W 123°06'0 0.0
2017-Nov-02 10:30N 49°12' W 123°06'0 0.0
2017-Nov-02 10:01N 49°12' W 123°06'0 0.0
2017-Nov-02 09:30N 49°12' W 123°06'0 0.0
2017-Nov-02 09:00N 49°12' W 123°06'0 0.0
2017-Nov-02 08:30N 49°12' W 123°06'0 0.0
2017-Nov-02 08:01N 49°12' W 123°06'0 0.0
2017-Nov-02 07:30N 49°12' W 123°06'0 0.0
2017-Nov-02 07:01N 49°12' W 123°06'0 0.0
2017-Nov-02 06:31N 49°12' W 123°06'0 0.0
2017-Nov-02 06:00N 49°12' W 123°06'0 0.0
2017-Nov-02 05:30N 49°12' W 123°06'0 0.0
2017-Nov-02 05:00N 49°12' W 123°06'0 0.0
2017-Nov-02 04:31N 49°12' W 123°06'0 0.0
2017-Nov-02 04:00N 49°12' W 123°06'0 0.0
2017-Nov-02 03:30N 49°12' W 123°06'0 0.0
2017-Nov-02 02:59N 49°12' W 123°06'0 0.0
2017-Nov-02 02:28N 49°12' W 123°06'0 0.0
2017-Nov-02 02:00N 49°12' W 123°06'0 0.0
2017-Nov-02 01:30N 49°12' W 123°06'0 0.0
2017-Nov-02 01:00N 49°12' W 123°06'0 0.0
2017-Nov-02 00:31N 49°12' W 123°06'0 0.0
2017-Nov-02 00:00N 49°12' W 123°06'0 0.0
2017-Nov-01 23:31N 49°12' W 123°06'0 0.0
2017-Nov-01 23:00N 49°12' W 123°06'0 0.0
2017-Nov-01 22:30N 49°12' W 123°06'0 0.0
2017-Nov-01 22:00N 49°12' W 123°06'0 0.0
2017-Nov-01 21:30N 49°12' W 123°06'0 0.0
2017-Nov-01 21:00N 49°12' W 123°06'0 0.0
2017-Nov-01 20:30N 49°12' W 123°06'0 0.0
2017-Nov-01 20:00N 49°12' W 123°06'0 0.0
2017-Nov-01 19:30N 49°12' W 123°06'0 0.0
2017-Nov-01 19:01N 49°12' W 123°06'0 0.0
2017-Nov-01 18:30N 49°12' W 123°06'  

Dump ship's entire track history